Time;durP1;ratioP1;P1;durP2;ratioP2;P2;SDS_P1;SDS_P2;PMS_P1;PMS_P2;Temp;Humidity;BMP_temperature;BMP_pressure;BME280_temperature;BME280_humidity;BME280_pressure;Samples;Min_cycle;Max_cycle;Signal;HPM_P1;HPM_P2
2021/12/16 00:07:14;;;;;;;33.42;5.30;;;;;;;8.13;100.00;101969.88;4812352;29;20038;-81
2021/12/16 00:10:01;;;;;;;30.65;4.75;;;;;;;7.96;100.00;101950.13;4799277;29;20095;-80
2021/12/16 00:32:19;;;;;;;27.33;4.47;;;;;;;8.07;100.00;101993.78;4812667;29;20122;-81
2021/12/16 00:34:46;;;;;;;31.70;5.18;;;;;;;8.16;100.00;102012.47;4809204;29;20447;-81
2021/12/16 00:37:11;;;;;;;31.70;5.38;;;;;;;8.14;100.00;102006.41;4811122;29;20045;-81
2021/12/16 00:39:38;;;;;;;39.38;5.68;;;;;;;8.18;100.00;102005.13;4811685;29;20038;-82
2021/12/16 00:42:11;;;;;;;34.22;4.75;;;;;;;8.16;100.00;102008.94;4811639;29;20035;-81
2021/12/16 00:49:49;;;;;;;32.63;4.50;;;;;;;8.16;100.00;102011.63;4808337;29;20045;-81
2021/12/16 00:55:56;;;;;;;34.85;5.32;;;;;;;8.09;100.00;102013.25;4806226;29;20088;-81
2021/12/16 00:57:55;;;;;;;25.10;3.78;;;;;;;8.12;100.00;102013.78;4786411;30;20046;-81
2021/12/16 01:00:26;;;;;;;28.77;4.93;;;;;;;8.12;100.00;102021.00;4782974;29;20031;-80
2021/12/16 01:51:51;;;;;;;31.15;5.75;;;;;;;7.87;100.00;102119.88;4812483;29;20050;-81
2021/12/16 01:57:13;;;;;;;32.25;5.30;;;;;;;7.63;100.00;102074.03;4811384;29;20088;-81
2021/12/16 01:59:46;;;;;;;39.80;5.78;;;;;;;7.92;100.00;102128.34;4796029;29;20034;-81
2021/12/16 02:02:35;;;;;;;31.08;4.30;;;;;;;7.85;100.00;102121.88;4810344;29;20026;-81
2021/12/16 02:05:30;;;;;;;40.03;6.05;;;;;;;7.91;100.00;102128.47;4812278;29;20034;-80
2021/12/16 02:10:37;;;;;;;41.08;6.57;;;;;;;7.76;100.00;102117.41;4813809;29;20042;-81
2021/12/16 02:37:36;;;;;;;51.67;8.20;;;;;;;7.78;100.00;102126.13;4809699;29;20091;-81
2021/12/16 02:40:06;;;;;;;59.85;7.53;;;;;;;7.79;100.00;102135.88;4791354;29;20039;-81
2021/12/16 02:42:38;;;;;;;45.25;7.15;;;;;;;7.75;100.00;102142.53;4793045;29;20023;-81
2021/12/16 02:50:25;;;;;;;53.55;6.88;;;;;;;7.82;100.00;102170.41;4809529;29;20062;-81
2021/12/16 02:52:52;;;;;;;50.75;7.43;;;;;;;7.78;100.00;102166.31;4807261;29;20409;-80
2021/12/16 02:55:21;;;;;;;52.78;7.57;;;;;;;7.62;100.00;102140.19;4777769;29;20385;-81
2021/12/16 02:57:59;;;;;;;57.60;7.25;;;;;;;7.75;100.00;102169.31;4807545;29;20102;-80
2021/12/16 03:00:25;;;;;;;56.65;8.68;;;;;;;7.72;100.00;102158.91;4793898;29;20110;-81
2021/12/16 03:02:52;;;;;;;51.63;7.82;;;;;;;7.76;100.00;102179.03;4793006;29;20034;-81
2021/12/16 03:05:20;;;;;;;48.95;7.80;;;;;;;7.76;100.00;102195.13;4778823;29;20031;-81
2021/12/16 03:07:47;;;;;;;54.92;8.32;;;;;;;7.68;100.00;102179.78;4790320;29;20087;-80
2021/12/16 03:13:23;;;;;;;49.67;7.97;;;;;;;7.71;100.00;102183.97;4804241;29;20431;-81
2021/12/16 03:18:27;;;;;;;47.72;7.22;;;;;;;7.54;100.00;102173.03;4801898;29;20041;-83
2021/12/16 03:20:58;;;;;;;50.58;9.20;;;;;;;7.59;100.00;102169.94;4791803;29;20035;-81
2021/12/16 03:37:12;;;;;;;62.58;8.88;;;;;;;7.57;100.00;102195.16;4802158;29;20092;-81
2021/12/16 03:39:39;;;;;;;55.65;7.53;;;;;;;7.56;100.00;102190.81;4788235;29;20035;-81
2021/12/16 03:42:06;;;;;;;46.50;7.20;;;;;;;7.47;100.00;102176.44;4804716;29;20039;-80
2021/12/16 03:44:48;;;;;;;51.22;7.93;;;;;;;7.33;100.00;102150.97;4788731;30;20045;-81
2021/12/16 03:47:16;;;;;;;54.40;8.50;;;;;;;7.54;100.00;102183.75;4787996;29;20462;-79
2021/12/16 03:49:42;;;;;;;60.20;8.43;;;;;;;7.53;100.00;102163.31;4788884;29;20050;-81
2021/12/16 03:52:08;;;;;;;53.60;7.57;;;;;;;7.52;100.00;102147.41;4788286;30;20126;-80
2021/12/16 03:54:40;;;;;;;56.15;8.57;;;;;;;7.63;100.00;102171.31;4787388;29;20065;-81
2021/12/16 03:57:10;;;;;;;53.05;7.05;;;;;;;7.76;100.00;102193.28;4789958;30;20477;-80
2021/12/16 03:59:37;;;;;;;55.08;8.57;;;;;;;7.79;100.00;102186.78;4788802;29;20366;-80
2021/12/16 04:02:09;;;;;;;56.38;8.40;;;;;;;7.46;100.00;102162.22;4788351;29;20051;-81
2021/12/16 04:04:38;;;;;;;60.70;8.20;;;;;;;7.56;100.00;102186.31;4788918;29;20023;-81
2021/12/16 04:07:04;;;;;;;61.97;8.10;;;;;;;7.44;100.00;102164.19;4792753;29;20050;-80
2021/12/16 04:09:32;;;;;;;46.45;7.28;;;;;;;7.47;100.00;102179.13;4807462;29;20047;-81
2021/12/16 04:12:08;;;;;;;51.53;8.15;;;;;;;7.46;100.00;102185.47;4807902;29;20042;-81
2021/12/16 04:14:35;;;;;;;57.72;7.85;;;;;;;7.54;100.00;102197.13;4806516;29;20039;-81
2021/12/16 04:17:03;;;;;;;53.95;8.13;;;;;;;7.45;100.00;102186.44;4807490;29;20361;-81
2021/12/16 04:19:30;;;;;;;49.63;7.90;;;;;;;7.52;100.00;102185.75;4820450;29;20034;-81
2021/12/16 04:22:18;;;;;;;50.30;7.53;;;;;;;7.58;100.00;102215.59;4822462;29;20034;-81
2021/12/16 04:24:47;;;;;;;59.38;7.82;;;;;;;7.47;100.00;102205.91;4807481;29;20027;-80
2021/12/16 04:27:14;;;;;;;40.03;6.13;;;;;;;7.55;100.00;102211.41;4807080;29;20023;-81
2021/12/16 04:29:39;;;;;;;51.60;7.07;;;;;;;7.48;100.00;102189.72;4807764;29;20347;-80
2021/12/16 04:32:06;;;;;;;54.13;7.57;;;;;;;7.51;100.00;102193.91;4831033;29;20039;-81
2021/12/16 04:34:31;;;;;;;47.08;7.50;;;;;;;7.49;100.00;102175.31;4815697;29;20466;-81
2021/12/16 04:36:58;;;;;;;58.45;7.57;;;;;;;7.59;100.00;102190.53;4814948;29;20065;-81
2021/12/16 04:39:27;;;;;;;39.22;5.82;;;;;;;7.50;100.00;102186.88;4827652;29;20444;-81
2021/12/16 04:41:54;;;;;;;61.67;8.38;;;;;;;7.65;100.00;102189.91;4802215;29;20125;-80
2021/12/16 04:44:23;;;;;;;50.50;7.18;;;;;;;7.54;100.00;102174.88;4809804;29;20456;-81
2021/12/16 04:46:49;;;;;;;44.60;6.32;;;;;;;7.59;100.00;102195.88;4806365;29;20125;-81
2021/12/16 04:49:15;;;;;;;42.78;6.63;;;;;;;7.59;100.00;102194.03;4789299;29;20135;-80
2021/12/16 04:51:45;;;;;;;50.00;7.60;;;;;;;7.60;100.00;102197.56;4807147;29;20046;-81
2021/12/16 04:54:12;;;;;;;55.90;7.75;;;;;;;7.54;100.00;102215.88;4793059;29;20596;-81
2021/12/16 04:56:38;;;;;;;49.95;7.75;;;;;;;7.60;100.00;102211.81;4808624;29;20027;-81
2021/12/16 04:59:08;;;;;;;62.75;7.75;;;;;;;7.47;100.00;102198.72;4809326;29;20064;-80
2021/12/16 05:01:35;;;;;;;60.10;8.90;;;;;;;7.61;100.00;102221.50;4809284;29;20077;-81
2021/12/16 05:04:00;;;;;;;62.53;8.25;;;;;;;7.61;100.00;102236.75;4810285;29;20037;-81
2021/12/16 05:06:26;;;;;;;46.63;7.80;;;;;;;7.62;100.00;102230.41;4823132;29;20043;-81
2021/12/16 05:08:51;;;;;;;43.95;6.38;;;;;;;7.59;100.00;102225.34;4809460;29;20187;-80
2021/12/16 05:11:18;;;;;;;49.55;7.82;;;;;;;7.58;100.00;102224.47;4824544;29;20057;-80
2021/12/16 05:13:45;;;;;;;45.78;6.45;;;;;;;7.54;100.00;102223.94;4823197;29;20035;-80
2021/12/16 05:16:10;;;;;;;47.75;7.57;;;;;;;7.59;100.00;102228.03;4792568;29;20038;-80
2021/12/16 05:18:38;;;;;;;50.83;7.13;;;;;;;7.56;100.00;102229.16;4809066;29;20034;-80
2021/12/16 05:21:36;;;;;;;49.85;7.05;;;;;;;7.54;100.00;102225.75;4818935;29;20092;-81
2021/12/16 05:26:46;;;;;;;49.08;6.78;;;;;;;7.50;100.00;102235.91;4807765;29;20038;-80
2021/12/16 05:29:12;;;;;;;56.55;7.55;;;;;;;7.50;100.00;102235.91;4808650;29;20035;-79
2021/12/16 05:31:38;;;;;;;54.33;7.97;;;;;;;6.74;100.00;102117.25;4792224;29;20615;-80
2021/12/16 05:34:06;;;;;;;52.10;7.00;;;;;;;7.41;100.00;102226.06;4793049;29;20045;-79
2021/12/16 05:36:32;;;;;;;46.58;6.32;;;;;;;7.44;100.00;102236.50;4803886;29;20126;-78
2021/12/16 05:38:58;;;;;;;59.15;7.93;;;;;;;7.50;100.00;102256.50;4790025;29;20056;-80
2021/12/16 05:41:25;;;;;;;51.28;7.93;;;;;;;7.41;100.00;102242.13;4804803;29;20039;-80
2021/12/16 05:43:52;;;;;;;63.90;8.43;;;;;;;7.48;100.00;102263.84;4803733;29;20070;-80
2021/12/16 05:46:19;;;;;;;42.28;6.43;;;;;;;7.31;100.00;102230.59;4803298;29;20068;-78
2021/12/16 05:48:48;;;;;;;34.00;5.55;;;;;;;7.36;100.00;102244.41;4802625;29;20042;-79
2021/12/16 05:51:32;;;;;;;44.83;6.25;;;;;;;7.41;100.00;102268.91;4803501;29;20457;-78
2021/12/16 05:53:59;;;;;;;36.25;5.78;;;;;;;7.47;100.00;102267.50;4811391;29;20037;-79
2021/12/16 05:56:25;;;;;;;40.67;6.32;;;;;;;7.50;100.00;102273.41;4807903;29;20031;-78
2021/12/16 05:58:50;;;;;;;35.70;5.60;;;;;;;7.50;100.00;102276.09;4797128;29;20122;-79
2021/12/16 06:01:21;;;;;;;50.00;7.40;;;;;;;7.49;100.00;102278.94;4779460;29;20049;-79
2021/12/16 06:03:48;;;;;;;45.20;7.10;;;;;;;7.37;100.00;102262.16;4799967;29;20362;-78
2021/12/16 06:06:15;;;;;;;53.72;6.70;;;;;;;7.53;100.00;102283.84;4804694;29;20429;-78
2021/12/16 06:08:44;;;;;;;32.80;5.40;;;;;;;7.42;100.00;102267.94;4775198;29;20066;-77
2021/12/16 06:13:48;;;;;;;42.28;6.30;;;;;;;7.50;100.00;102286.81;4802297;29;20370;-80
2021/12/16 06:27:15;;;;;;;51.53;6.97;;;;;;;7.62;100.00;102281.31;4808799;29;20500;-79
2021/12/16 06:29:44;;;;;;;42.08;6.50;;;;;;;7.58;100.00;102286.09;4806639;29;20088;-79
2021/12/16 06:32:10;;;;;;;42.90;7.40;;;;;;;7.60;100.00;102305.56;4786123;29;20103;-78
2021/12/16 06:34:36;;;;;;;40.67;5.55;;;;;;;7.61;100.00;102314.44;4802907;29;20111;-78
2021/12/16 06:37:02;;;;;;;41.90;5.90;;;;;;;7.59;100.00;102325.31;4800816;29;20035;-77
2021/12/16 06:39:28;;;;;;;47.70;6.53;;;;;;;7.51;100.00;102331.34;4790133;29;20082;-78
2021/12/16 06:41:54;;;;;;;50.38;6.78;;;;;;;7.57;100.00;102342.50;4803804;29;20109;-77
2021/12/16 06:44:25;;;;;;;55.45;8.10;;;;;;;7.56;100.00;102332.78;4801256;29;20434;-78
2021/12/16 06:46:56;;;;;;;42.35;6.43;;;;;;;7.56;100.00;102356.88;4802343;29;20058;-78
2021/12/16 06:49:22;;;;;;;56.35;7.50;;;;;;;7.57;100.00;102355.91;4802595;29;20043;-78
2021/12/16 06:52:08;;;;;;;50.67;7.40;;;;;;;7.32;100.00;102320.66;4804892;29;20034;-78
2021/12/16 06:55:00;;;;;;;;;;;;;;;7.43;100.00;102346.44;4800037;29;20523;-78
2021/12/16 07:00:10;;;;;;;45.35;6.93;;;;;;;7.40;100.00;102342.22;4802775;29;20078;-77
2021/12/16 07:05:09;;;;;;;51.80;7.07;;;;;;;7.46;100.00;102349.69;4802689;29;20034;-78
2021/12/16 07:07:34;;;;;;;41.80;6.25;;;;;;;7.43;100.00;102358.00;4789491;29;20386;-77
2021/12/16 07:10:00;;;;;;;40.70;6.18;;;;;;;7.36;100.00;102332.78;4801171;29;20043;-77
2021/12/16 07:12:35;;;;;;;57.67;8.40;;;;;;;7.45;100.00;102360.53;4804017;29;20427;-77
2021/12/16 07:15:04;;;;;;;45.60;6.68;;;;;;;7.25;100.00;102338.25;4803123;29;20046;-78
2021/12/16 07:17:30;;;;;;;53.03;7.35;;;;;;;7.40;100.00;102354.75;4805125;29;20454;-77
2021/12/16 07:19:57;;;;;;;55.58;8.07;;;;;;;7.33;100.00;102357.16;4803791;29;20055;-78
2021/12/16 07:22:22;;;;;;;49.83;7.88;;;;;;;7.43;100.00;102382.13;4788738;29;20092;-78
2021/12/16 07:24:48;;;;;;;53.30;7.75;;;;;;;7.39;100.00;102377.19;4784595;29;20034;-77
2021/12/16 07:27:13;;;;;;;44.70;7.53;;;;;;;7.36;100.00;102372.09;4793238;29;20053;-78
2021/12/16 07:29:39;;;;;;;49.42;8.15;;;;;;;7.25;100.00;102370.38;4773089;29;20046;-77
2021/12/16 07:32:05;;;;;;;52.70;7.00;;;;;;;7.42;100.00;102396.50;4793623;29;20042;-78
2021/12/16 07:34:31;;;;;;;47.47;8.02;;;;;;;7.33;100.00;102375.06;4801435;29;20038;-78
2021/12/16 07:36:59;;;;;;;52.33;7.25;;;;;;;7.16;100.00;102350.66;4800139;29;20130;-79
2021/12/16 07:39:30;;;;;;;51.78;7.00;;;;;;;7.41;100.00;102391.25;4802496;29;20034;-78
2021/12/16 07:41:57;;;;;;;51.95;8.05;;;;;;;7.40;100.00;102400.28;4803272;29;20062;-78
2021/12/16 07:44:22;;;;;;;48.90;7.05;;;;;;;6.92;100.00;102335.00;4801274;29;20133;-78
2021/12/16 07:46:52;;;;;;;51.58;6.45;;;;;;;7.41;100.00;102402.81;4788806;29;20894;-77
2021/12/16 07:49:29;;;;;;;55.25;6.32;;;;;;;7.48;100.00;102411.16;4803709;29;20034;-77
2021/12/16 07:51:57;;;;;;;45.70;7.43;;;;;;;7.46;100.00;102411.28;4801001;29;20065;-78
2021/12/16 07:54:23;;;;;;;43.65;6.32;;;;;;;7.45;100.00;102404.25;4806341;29;20049;-78
2021/12/16 07:56:51;;;;;;;41.92;6.25;;;;;;;7.39;100.00;102375.34;4802875;29;20039;-78
2021/12/16 07:59:16;;;;;;;49.58;7.38;;;;;;;7.31;100.00;102372.50;4802170;29;20125;-78
2021/12/16 08:01:44;;;;;;;62.03;8.02;;;;;;;7.44;100.00;102390.97;4785476;29;20531;-77
2021/12/16 08:04:19;;;;;;;59.08;7.57;;;;;;;7.45;100.00;102401.56;4803225;29;20056;-78
2021/12/16 08:06:45;;;;;;;;;;;;;;;7.38;100.00;102408.44;4799042;29;20031;-78
2021/12/16 08:09:11;;;;;;;46.35;7.05;;;;;;;7.41;100.00;102408.16;4800209;29;19925;-78
2021/12/16 08:11:40;;;;;;;53.10;8.45;;;;;;;7.39;100.00;102409.31;4803494;29;20485;-77
2021/12/16 08:14:07;;;;;;;53.72;9.70;;;;;;;7.43;100.00;102426.81;4800033;29;20485;-78
2021/12/16 08:16:33;;;;;;;54.42;7.75;;;;;;;7.46;100.00;102435.41;4797466;29;20113;-77
2021/12/16 08:18:59;;;;;;;42.05;5.95;;;;;;;7.50;100.00;102444.84;4792076;29;20035;-77
2021/12/16 08:21:29;;;;;;;46.83;6.28;;;;;;;7.44;99.80;102450.75;4805608;29;20031;-77
2021/12/16 08:23:59;;;;;;;60.08;9.10;;;;;;;7.21;100.00;102401.09;4806732;29;20073;-78
2021/12/16 08:26:27;;;;;;;45.38;6.63;;;;;;;7.46;100.00;102448.78;4800166;29;20054;-78
2021/12/16 08:28:53;;;;;;;48.47;7.85;;;;;;;7.48;100.00;102468.25;4808152;29;20027;-78
2021/12/16 08:31:19;;;;;;;44.42;6.10;;;;;;;7.48;100.00;102460.22;4801917;29;20042;-78
2021/12/16 08:33:45;;;;;;;51.90;7.45;;;;;;;7.49;99.91;102477.97;4802829;29;20062;-78
2021/12/16 08:36:11;;;;;;;41.15;6.30;;;;;;;7.43;99.89;102473.16;4804341;29;20045;-78
2021/12/16 08:38:37;;;;;;;44.83;7.10;;;;;;;7.62;99.00;102485.75;4804323;29;20031;-79
2021/12/16 08:41:08;;;;;;;54.53;8.00;;;;;;;7.47;98.91;102487.97;4804386;29;20031;-78
2021/12/16 08:43:35;;;;;;;53.83;9.05;;;;;;;7.49;98.98;102511.97;4802968;29;20113;-78
2021/12/16 08:46:01;;;;;;;49.88;7.20;;;;;;;7.59;99.04;102507.47;4802412;29;20110;-78
2021/12/16 08:48:26;;;;;;;52.38;8.27;;;;;;;7.54;98.57;102502.50;4788789;29;20134;-78
2021/12/16 08:50:53;;;;;;;53.33;7.18;;;;;;;7.59;98.41;102520.03;4791448;29;20043;-77
2021/12/16 08:53:20;;;;;;;52.33;7.70;;;;;;;7.54;98.98;102529.28;4804760;29;20041;-78
2021/12/16 08:55:47;;;;;;;52.58;8.40;;;;;;;7.62;98.80;102527.78;4802715;29;20465;-77
2021/12/16 08:58:12;;;;;;;50.50;7.70;;;;;;;7.54;98.44;102531.13;4806974;29;20046;-78
2021/12/16 09:00:46;;;;;;;47.13;6.90;;;;;;;7.47;98.52;102509.41;4774562;29;20472;-78
2021/12/16 09:03:12;;;;;;;47.25;7.30;;;;;;;7.69;98.07;102534.28;4804487;29;20062;-78
2021/12/16 09:05:38;;;;;;;41.10;6.82;;;;;;;7.67;98.28;102539.75;4790006;29;20433;-78
2021/12/16 09:08:04;;;;;;;41.78;6.93;;;;;;;7.68;98.79;102538.81;4792601;29;20062;-78
2021/12/16 09:10:33;;;;;;;53.58;8.07;;;;;;;7.67;98.43;102536.25;4791893;29;20043;-78
2021/12/16 09:13:04;;;;;;;59.50;8.25;;;;;;;7.58;98.80;102512.94;4802700;29;20037;-78
2021/12/16 09:15:44;;;;;;;39.17;6.55;;;;;;;7.48;98.86;102500.41;4788559;29;20130;-78
2021/12/16 09:18:10;;;;;;;58.92;7.88;;;;;;;7.70;99.23;102546.69;4800683;29;20465;-78
2021/12/16 09:20:37;;;;;;;53.20;9.00;;;;;;;7.65;98.91;102536.41;4803253;29;20108;-78
2021/12/16 09:23:03;;;;;;;53.10;7.35;;;;;;;7.75;98.93;102544.47;4802682;29;20023;-77
2021/12/16 09:25:29;;;;;;;55.92;7.93;;;;;;;7.72;98.71;102548.25;4791918;29;20039;-78
2021/12/16 09:27:54;;;;;;;49.72;7.32;;;;;;;7.62;98.94;102528.63;4801759;29;20362;-78
2021/12/16 09:30:24;;;;;;;55.05;8.20;;;;;;;7.73;98.66;102549.09;4792515;29;20106;-77
2021/12/16 09:32:52;;;;;;;52.08;8.05;;;;;;;7.76;99.11;102544.31;4802611;29;20099;-78
2021/12/16 09:35:20;;;;;;;50.80;6.93;;;;;;;7.54;99.24;102505.19;4800930;29;20415;-78
2021/12/16 09:37:46;;;;;;;53.20;9.15;;;;;;;7.76;98.77;102548.81;4801944;29;20042;-77
2021/12/16 09:40:19;;;;;;;51.63;8.63;;;;;;;7.58;98.13;102529.03;4802161;29;20041;-78
2021/12/16 09:42:44;;;;;;;51.75;7.43;;;;;;;7.83;98.53;102563.34;4787803;29;20119;-77
2021/12/16 09:45:12;;;;;;;54.80;7.63;;;;;;;7.81;98.86;102570.69;4788340;29;20456;-78
2021/12/16 09:47:39;;;;;;;55.53;8.23;;;;;;;7.77;98.39;102542.47;4801929;29;20031;-78
2021/12/16 09:50:07;;;;;;;51.50;7.32;;;;;;;7.89;98.02;102567.34;4803381;29;20031;-78
2021/12/16 09:52:33;;;;;;;41.20;6.25;;;;;;;7.78;98.06;102541.47;4805411;29;20442;-78
2021/12/16 09:54:58;;;;;;;49.47;7.57;;;;;;;7.84;98.63;102554.31;4806615;29;20072;-78
2021/12/16 09:57:24;;;;;;;48.20;6.38;;;;;;;7.87;99.29;102561.25;4804479;29;20065;-77
2021/12/16 09:59:50;;;;;;;47.10;5.75;;;;;;;7.90;99.13;102561.81;4805799;29;20045;-78
2021/12/16 10:02:19;;;;;;;49.50;7.22;;;;;;;7.93;98.57;102574.94;4801112;29;20047;-78
2021/12/16 10:04:46;;;;;;;45.13;7.10;;;;;;;7.95;98.71;102564.94;4800463;29;20335;-78
2021/12/16 10:07:27;;;;;;;45.97;7.05;;;;;;;7.94;98.40;102557.03;4805902;29;20459;-78
2021/12/16 10:09:54;;;;;;;46.67;7.53;;;;;;;7.96;98.27;102563.09;4808859;29;20035;-77
2021/12/16 10:12:25;;;;;;;41.00;5.85;;;;;;;7.96;98.27;102563.94;4807508;29;20068;-78
2021/12/16 10:17:28;;;;;;;51.83;6.93;;;;;;;7.91;97.74;102539.41;4775981;29;20046;-78
2021/12/16 10:20:04;;;;;;;48.85;6.70;;;;;;;8.02;97.56;102556.34;4789840;29;20035;-78
2021/12/16 10:22:39;;;;;;;36.70;6.55;;;;;;;7.96;98.40;102555.06;4801651;29;20041;-77
2021/12/16 10:25:25;;;;;;;54.38;7.80;;;;;;;8.03;97.66;102555.34;4799480;29;20054;-78
2021/12/16 10:27:59;;;;;;;47.00;6.97;;;;;;;7.95;97.67;102558.75;4802874;29;20058;-78
2021/12/16 10:30:34;;;;;;;38.80;6.43;;;;;;;8.05;97.92;102577.53;4800696;29;20108;-78
2021/12/16 10:33:10;;;;;;;57.67;8.20;;;;;;;8.00;97.74;102580.59;4805231;29;20039;-78
2021/12/16 10:35:35;;;;;;;42.65;6.07;;;;;;;7.99;97.30;102590.47;4794014;29;20030;-78
2021/12/16 10:38:04;;;;;;;49.58;6.35;;;;;;;8.00;97.70;102588.63;4787685;29;20109;-78
2021/12/16 10:41:03;;;;;;;54.55;6.80;;;;;;;8.05;97.25;102604.34;4800719;29;20354;-78
2021/12/16 10:43:38;;;;;;;49.58;7.57;;;;;;;8.07;97.69;102588.94;4773961;29;20046;-77
2021/12/16 10:46:08;;;;;;;43.25;5.78;;;;;;;8.09;97.32;102600.38;4807385;29;20031;-77
2021/12/16 10:48:48;;;;;;;54.30;7.75;;;;;;;8.08;97.98;102595.97;4808373;29;20062;-77
2021/12/16 10:51:23;;;;;;;54.65;8.30;;;;;;;8.08;98.40;102601.34;4803460;29;20050;-78
2021/12/16 10:53:55;;;;;;;56.70;9.15;;;;;;;8.09;98.52;102600.38;4805441;29;20500;-78
2021/12/16 10:56:35;;;;;;;50.95;7.28;;;;;;;8.12;98.26;102606.31;4806653;29;20045;-78
2021/12/16 10:59:09;;;;;;;54.33;7.30;;;;;;;8.09;99.05;102605.75;4794399;29;20031;-79
2021/12/16 11:01:46;;;;;;;37.47;6.63;;;;;;;8.08;99.21;102609.38;4801674;29;20138;-78
2021/12/16 11:04:33;;;;;;;45.03;7.20;;;;;;;7.86;99.20;102579.16;4801197;29;20388;-77
2021/12/16 11:07:01;;;;;;;48.22;6.43;;;;;;;8.09;99.44;102624.50;4801797;29;20027;-78
2021/12/16 11:09:38;;;;;;;61.63;7.90;;;;;;;8.06;100.00;102630.16;4789834;29;20069;-78
2021/12/16 11:12:12;;;;;;;53.55;7.55;;;;;;;8.08;100.00;102628.16;4790301;29;20028;-78
2021/12/16 11:14:39;;;;;;;43.95;6.60;;;;;;;7.98;100.00;102618.28;4804049;29;20542;-78
2021/12/16 11:17:08;;;;;;;42.97;6.78;;;;;;;8.07;100.00;102640.72;4801905;29;20034;-78
2021/12/16 11:19:53;;;;;;;62.25;8.57;;;;;;;7.92;100.00;102623.34;4804954;29;20462;-78
2021/12/16 11:22:20;;;;;;;;;;;;;;;8.03;100.00;102641.97;4787160;29;20043;-78
2021/12/16 11:24:47;;;;;;;47.13;7.90;;;;;;;8.04;100.00;102649.03;4790043;29;20363;-78
2021/12/16 11:27:23;;;;;;;50.70;7.43;;;;;;;7.97;100.00;102635.31;4774885;29;20031;-78
2021/12/16 11:29:49;;;;;;;58.75;9.00;;;;;;;8.00;100.00;102648.47;4805605;29;20045;-78
2021/12/16 11:32:39;;;;;;;56.72;8.27;;;;;;;8.06;100.00;102652.44;4805317;29;20031;-78
2021/12/16 11:35:34;;;;;;;65.35;10.23;;;;;;;8.00;100.00;102645.78;4806073;29;20023;-78
2021/12/16 11:38:03;;;;;;;;;;;;;;;8.01;100.00;102646.63;4790479;29;20502;-78
2021/12/16 11:40:48;;;;;;;52.60;8.13;;;;;;;7.94;100.00;102650.84;4805458;29;19929;-78
2021/12/16 11:43:14;;;;;;;58.28;8.35;;;;;;;7.97;100.00;102654.09;4804926;29;20030;-78
2021/12/16 11:45:39;;;;;;;59.88;7.97;;;;;;;7.97;100.00;102642.53;4802772;29;20100;-78
2021/12/16 11:48:07;;;;;;;62.05;8.77;;;;;;;8.02;100.00;102636.78;4788936;29;20031;-78
2021/12/16 11:50:41;;;;;;;64.97;7.85;;;;;;;7.97;100.00;102645.22;4809637;29;20062;-78
2021/12/16 11:53:10;;;;;;;67.55;8.18;;;;;;;8.00;100.00;102651.13;4805119;29;20030;-78
2021/12/16 11:55:37;;;;;;;66.57;9.15;;;;;;;7.83;100.00;102621.47;4804046;29;20049;-79
2021/12/16 11:58:06;;;;;;;56.70;8.75;;;;;;;7.95;100.00;102640.00;4802967;29;20043;-79
2021/12/16 12:00:36;;;;;;;58.65;7.90;;;;;;;8.02;100.00;102658.22;4804565;29;20039;-77
2021/12/16 12:03:12;;;;;;;51.33;8.27;;;;;;;7.97;100.00;102650.56;4807488;29;20117;-78
2021/12/16 12:05:42;;;;;;;56.67;8.55;;;;;;;7.89;100.00;102637.03;4807234;29;20039;-78
2021/12/16 12:08:13;;;;;;;47.78;8.32;;;;;;;8.02;100.00;102682.34;4818088;29;20047;-78
2021/12/16 12:10:46;;;;;;;57.05;8.38;;;;;;;8.06;100.00;102673.03;4808940;29;20053;-78
2021/12/16 12:13:24;;;;;;;46.33;7.53;;;;;;;7.73;100.00;102632.16;4808150;29;20050;-78
2021/12/16 12:15:54;;;;;;;50.38;7.97;;;;;;;8.00;100.00;102682.47;4808830;29;20042;-78
2021/12/16 12:18:41;;;;;;;64.68;8.40;;;;;;;7.99;100.00;102683.47;4818653;29;20060;-78
2021/12/16 12:21:29;;;;;;;50.38;7.43;;;;;;;8.01;100.00;102678.78;4807984;29;20031;-78
2021/12/16 12:24:01;;;;;;;62.92;9.02;;;;;;;7.87;100.00;102674.66;4792953;29;20117;-78
2021/12/16 12:26:29;;;;;;;55.35;8.60;;;;;;;7.98;100.00;102696.03;4806877;29;20110;-79
2021/12/16 12:28:59;;;;;;;57.60;8.43;;;;;;;7.97;100.00;102680.91;4809627;29;20026;-78
2021/12/16 12:31:29;;;;;;;55.90;7.80;;;;;;;7.97;100.00;102688.09;4806422;29;20066;-78
2021/12/16 12:33:55;;;;;;;55.13;8.15;;;;;;;7.95;100.00;102685.56;4809615;29;20066;-78
2021/12/16 12:36:22;;;;;;;57.55;7.47;;;;;;;7.74;100.00;102640.06;4810660;29;20051;-78
2021/12/16 12:38:48;;;;;;;44.45;8.05;;;;;;;8.14;100.00;102700.84;4809176;29;20221;-78
2021/12/16 12:41:16;;;;;;;39.53;6.57;;;;;;;8.02;100.00;102685.03;4808849;29;20057;-78
2021/12/16 12:43:41;;;;;;;44.53;6.90;;;;;;;8.11;100.00;102706.50;4812253;29;20046;-78
2021/12/16 12:46:08;;;;;;;52.85;8.10;;;;;;;7.96;100.00;102692.63;4808985;29;20039;-78
2021/12/16 12:48:36;;;;;;;53.38;7.18;;;;;;;7.95;99.87;102707.00;4807940;29;20035;-78
2021/12/16 12:51:04;;;;;;;49.40;7.30;;;;;;;7.99;100.00;102724.53;4807916;29;20092;-78
2021/12/16 12:53:50;;;;;;;49.55;8.23;;;;;;;7.83;100.00;102712.59;4807603;29;20035;-78
2021/12/16 12:56:28;;;;;;;48.22;7.38;;;;;;;7.89;100.00;102731.66;4792568;29;20031;-78
2021/12/16 12:59:15;;;;;;;44.85;5.65;;;;;;;7.88;100.00;102732.66;4808061;29;20035;-78
2021/12/16 13:01:53;;;;;;;48.30;6.50;;;;;;;7.82;100.00;102743.91;4807708;29;20022;-78
2021/12/16 13:04:23;;;;;;;47.83;7.75;;;;;;;7.79;100.00;102756.75;4819078;29;20623;-78
2021/12/16 13:06:56;;;;;;;59.55;9.32;;;;;;;7.62;100.00;102744.81;4808778;29;20072;-78
2021/12/16 13:09:26;;;;;;;66.10;7.93;;;;;;;7.52;100.00;102734.03;4807141;29;20070;-78
2021/12/16 13:11:53;;;;;;;52.40;7.75;;;;;;;7.53;100.00;102765.19;4807680;29;20568;-78
2021/12/16 13:14:25;;;;;;;61.28;8.32;;;;;;;7.62;100.00;102764.41;4805959;29;20039;-78
2021/12/16 13:26:01;;;;;;;61.60;8.80;;;;;;;7.35;100.00;102761.38;4806957;29;20433;-78
2021/12/16 13:31:28;;;;;;;64.25;8.15;;;;;;;7.02;100.00;102731.13;4808054;29;20109;-78
2021/12/16 13:33:59;;;;;;;45.97;6.75;;;;;;;7.11;100.00;102742.88;4806506;29;20042;-79
2021/12/16 13:36:49;;;;;;;56.22;7.88;;;;;;;7.21;100.00;102760.72;4791573;29;20399;-79
2021/12/16 13:39:19;;;;;;;48.10;6.80;;;;;;;6.90;100.00;102711.59;4807319;29;20386;-78
2021/12/16 13:42:00;;;;;;;62.22;9.13;;;;;;;7.12;100.00;102766.84;4807063;29;20031;-78
2021/12/16 13:45:02;;;;;;;55.83;6.93;;;;;;;7.06;100.00;102753.97;4806893;29;20486;-78
2021/12/16 14:02:04;;;;;;;56.15;7.20;;;;;;;6.94;100.00;102765.69;4806850;29;20057;-78
2021/12/16 14:07:40;;;;;;;55.70;7.90;;;;;;;6.85;100.00;102786.03;4807501;29;20399;-78
2021/12/16 14:17:52;;;;;;;52.45;7.07;;;;;;;6.79;100.00;102778.53;4807666;29;20686;-77
2021/12/16 14:23:23;;;;;;;52.88;7.03;;;;;;;6.57;100.00;102758.88;4803284;29;19981;-78
2021/12/16 14:26:12;;;;;;;46.78;6.53;;;;;;;6.82;100.00;102797.88;4805605;29;20126;-77
2021/12/16 14:42:26;;;;;;;50.17;6.93;;;;;;;7.00;100.00;102802.66;4805537;29;20048;-78
2021/12/16 14:50:45;;;;;;;42.05;7.40;;;;;;;7.05;100.00;102814.72;4796387;29;20030;-78
2021/12/16 14:53:21;;;;;;;39.92;6.15;;;;;;;6.93;100.00;102788.94;4806167;29;20349;-78
2021/12/16 14:55:48;;;;;;;60.78;8.40;;;;;;;7.06;100.00;102813.72;4796295;29;20362;-78
2021/12/16 14:58:14;;;;;;;46.92;6.68;;;;;;;7.05;100.00;102814.72;4790541;29;20061;-78
2021/12/16 15:00:46;;;;;;;47.65;8.20;;;;;;;6.70;100.00;102769.44;4778625;29;20130;-78
2021/12/16 15:03:19;;;;;;;40.10;6.10;;;;;;;7.07;100.00;102833.31;4806038;29;20031;-78
2021/12/16 15:05:49;;;;;;;45.78;6.65;;;;;;;6.90;100.00;102805.25;4806176;29;20343;-78
2021/12/16 15:08:26;;;;;;;49.22;7.40;;;;;;;6.94;100.00;102816.56;4805941;29;20046;-78
2021/12/16 15:10:53;;;;;;;29.33;5.13;;;;;;;7.09;100.00;102839.41;4789835;29;20455;-78
2021/12/16 15:13:29;;;;;;;55.30;7.32;;;;;;;6.99;100.00;102828.59;4782759;29;20035;-78
2021/12/16 15:43:01;;;;;;;44.33;6.47;;;;;;;7.10;100.00;102869.69;4804740;29;20046;-78